Terminal Aerodrome Forecast
Issued by NWS

Home | Current Version | Previous Version | Text Only | Print | Product List | Glossary On
Versions: 1 2 3 4 5 6 7 8 9 10 11 12 13 14
000
FTUS42 KJAX 230931 AAA
TAFVQQ
TAF AMD
KVQQ 230931Z 2310/2406 00000KT 4SM BR SCT020
     FM231500 05012KT 6SM SHRA SCT020 BKN035
     FM232100 06015KT P6SM BKN040
     FM240200 04003KT P6SM SCT020 BKN200=

USA.gov is the U.S. government's official web portal to all federal, state and local government web resources and services.